• Join FlightAware (Why Join?)
  • Login
  • US Flag 
07:51AM EDT


 

Airport Tracker/Info


-or-


 

Live Flight TrackerFlight Track Log ✈ CPZ5714 ✈ 21-Jun-2013 ✈ KMSP - KALB

Flight Track Log - Related Links

Times and Time Zones

All times are in EDT time to prevent confusion due to time zone crossing. See the CPZ5714 flight status page for this flight to view local times or setup timezone preferences in your user account.

Time Position Orientation Groundspeed Altitude Reporting Facility
EDT Latitude Longitude Course Direction KTS MPH feet Rate Location/Type
10:46PM 44.9333 -93.2500 28° Northeast 183 211 2,600  Level Minneapolis TRACON
10:47PM 44.9833 -93.2333 13° North 221 254 4,100 1,380 Climbing Minneapolis TRACON
10:47PM 45.0106 -93.2242 13° North 251 289 4,600 2,040 Climbing Minneapolis Center
10:48PM 45.3129 -93.2470 25° Northeast  Level FlightAware Approximate
10:48PM 45.0869 -93.1831 21° North 292 336 7,300  Level Minneapolis Center
10:49PM 45.4280 -93.1702 25° Northeast  Level FlightAware Approximate
10:49PM 45.1661 -93.1397 21° North 305 351 9,900  Level Minneapolis Center
10:50PM 45.5432 -93.0935 25° Northeast  Level FlightAware Approximate
10:50PM 45.2525 -93.1142 12° North 318 366 12,600  Level Minneapolis Center
10:51PM 45.6502 -93.0207 28° Northeast  Level FlightAware Approximate
10:51PM 45.3603 -93.0864 10° North 331 381 15,200  Level Minneapolis Center
10:52PM 45.4586 -93.0583 11° North 366 421 17,000 1,920 Climbing Minneapolis Center
10:53PM 45.5569 -93.0000 23° Northeast 380 437 19,200 2,040 Climbing Minneapolis Center
10:54PM 45.6567 -92.9350 24° Northeast 393 452 21,200 1,920 Climbing Minneapolis Center
10:55PM 45.7589 -92.8725 23° Northeast 400 460 23,200 1,560 Climbing Minneapolis Center
10:57PM 45.8647 -92.8036 24° Northeast 416 479 24,500 1,020 Climbing Minneapolis Center
10:58PM 45.9175 -92.6417 65° Northeast 466 536 25,400 1,020 Climbing Minneapolis Center
10:59PM 45.8867 -92.4611 104° East 473 544 26,600 1,320 Climbing Minneapolis Center
11:00PM 45.8389 -92.2458 108° East 474 545 28,100 1,320 Climbing Minneapolis Center
11:01PM 45.7997 -92.0656 107° East 476 548 29,300 1,080 Climbing Minneapolis Center
11:02PM 45.7625 -91.8889 107° East 469 540 30,300 1,020 Climbing Minneapolis Center
11:03PM 45.7214 -91.7103 108° East 471 542 31,400 840 Climbing Minneapolis Center
11:05PM 45.6417 -91.3578 108° East 467 537 32,900 660 Climbing Minneapolis Center
11:06PM 45.6008 -91.1800 108° East 465 535 33,600 540 Climbing Minneapolis Center
11:07PM 45.5506 -90.9669 109° East 470 541 34,200 660 Climbing Minneapolis Center
11:08PM 45.5100 -90.7894 108° East 473 544 35,000 360 Climbing Minneapolis Center
11:09PM 45.4675 -90.6100 109° East 479 551 35,000  Level Minneapolis Center
11:10PM 45.4294 -90.4292 107° East 479 551 35,000  Level Minneapolis Center
11:11PM 45.4086 -90.1978 97° East 494 568 35,000  Level Minneapolis Center
11:12PM 45.3925 -90.0061 97° East 492 566 35,000  Level Minneapolis Center
11:13PM 45.3756 -89.8128 97° East 495 570 35,000  Level Minneapolis Center
11:14PM 45.3578 -89.6194 97° East 496 571 35,000  Level Minneapolis Center
11:15PM 45.3403 -89.4269 97° East 495 570 35,000  Level Minneapolis Center
11:16PM 45.3219 -89.2319 98° East 500 575 35,000  Level Minneapolis Center
11:17PM 45.3069 -89.0728 98° East 507 583 35,000  Level Minneapolis Center
11:18PM 45.2839 -88.8353 98° East 510 587 35,000  Level Minneapolis Center
11:19PM 45.2619 -88.5989 97° East 507 583 35,000  Level Minneapolis Center
11:20PM 45.2464 -88.4456 98° East 485 558 35,000  Level Minneapolis Center
11:21PM 45.2233 -88.2214 98° East 480 552 35,000  Level Minneapolis Center
11:22PM 45.2025 -88.0311 99° East 488 562 35,000  Level Minneapolis Center
11:23PM 45.1828 -87.8419 98° East 488 562 35,000  Level Minneapolis Center
11:24PM 45.1617 -87.6508 99° East 491 565 35,000  Level Minneapolis Center
11:25PM 45.1422 -87.4572 98° East 495 570 35,000  Level Minneapolis Center
11:26PM 45.1211 -87.2661 99° East 493 567 35,000  Level Minneapolis Center
11:27PM 45.0997 -87.0750 99° East 492 566 35,000  Level Minneapolis Center
11:28PM 45.0769 -86.8853 100° East 491 565 35,000  Level Minneapolis Center
11:29PM 45.0528 -86.6781 99° East 491 565 35,000  Level Minneapolis Center
11:30PM 45.0306 -86.4883 99° East 491 565 35,000  Level Minneapolis Center
11:31PM 45.0081 -86.3003 100° East 488 562 35,000  Level Minneapolis Center
11:32PM 44.9853 -86.1114 100° East 488 562 35,000  Level Minneapolis Center
11:33PM 44.9619 -85.9231 100° East 487 560 35,000  Level Minneapolis Center
11:34PM 44.9389 -85.7356 100° East 486 559 35,000  Level Minneapolis Center
11:35PM 44.9167 -85.5511 100° East 488 562 35,000  Level Minneapolis Center
11:36PM 44.8914 -85.3608 101° East 491 565 35,000  Level Minneapolis Center
11:38PM 44.8669 -85.1711 100° East 491 565 35,000  Level Minneapolis Center
11:39PM 44.8331 -84.9078 100° East 489 563 35,000  Level Minneapolis Center
11:40PM 44.8078 -84.7189 101° East 492 566 35,000  Level Minneapolis Center
11:41PM 44.7811 -84.5289 101° East 494 568 35,000  Level Minneapolis Center
11:42PM 44.7547 -84.3394 101° East 495 570 35,000  Level Minneapolis Center
11:43PM 44.7294 -84.1506 101° East 494 568 35,000  Level Minneapolis Center
11:44PM 44.7014 -83.9631 102° East 492 566 35,000  Level Minneapolis Center
11:45PM 44.6756 -83.7756 101° East 491 565 35,000  Level Minneapolis Center
11:46PM 44.6489 -83.5881 101° East 491 565 35,000  Level Minneapolis Center
11:47PM 44.6225 -83.4011 101° East 490 564 35,000  Level Minneapolis Center
11:48PM 44.5944 -83.2150 102° East 489 563 35,000  Level Minneapolis Center
11:49PM 44.5644 -83.0258 102° East 494 568 35,000  Level Minneapolis Center
11:50PM 44.5378 -82.8400 101° East 491 565 35,000  Level Minneapolis Center
11:51PM 44.5089 -82.6522 102° East 491 565 35,000  Level Minneapolis Center
11:52PM 44.4750 -82.4264 102° East 495 570 35,000  Level Minneapolis Center
11:53PM 44.4333 -82.2167 105° East 500 575 35,000  Level Toronto Center
11:54PM 44.4000 -82.0667 107° East 500 575 35,000  Level Toronto Center
11:55PM 44.3667 -81.8500 102° East 500 575 35,000  Level Toronto Center
11:56PM 44.3333 -81.6667 104° East 500 575 35,000  Level Toronto Center
11:57PM 44.3167 -81.5000 98° East 500 575 35,000  Level Toronto Center
11:58PM 44.2667 -81.2833 108° East 500 575 35,000  Level Toronto Center
11:59PM 44.2333 -81.1000 104° East 500 575 35,000  Level Toronto Center
12:00AM 44.2000 -80.9167 104° East 500 575 35,000  Level Toronto Center
12:01AM 44.1833 -80.7333 97° East 500 575 35,000  Level Toronto Center
12:02AM 44.1500 -80.5333 103° East 500 575 35,000  Level Toronto Center
12:03AM 44.1167 -80.3500 104° East 500 575 35,000  Level Toronto Center
12:04AM 44.0833 -80.1667 104° East 500 575 35,000  Level Toronto Center
12:05AM 44.0500 -79.9833 104° East 500 575 35,000  Level Toronto Center
12:06AM 44.0167 -79.7667 102° East 500 575 35,000  Level Toronto Center
12:07AM 43.9833 -79.5833 104° East 500 575 35,000  Level Toronto Center
12:08AM 43.9500 -79.4000 104° East 510 587 35,000  Level Toronto Center
12:09AM 43.9167 -79.2167 104° East 510 587 35,000  Level Toronto Center
12:10AM 43.8833 -79.0333 104° East 500 575 35,000  Level Toronto Center
12:11AM 43.8500 -78.8500 104° East 500 575 35,000  Level Toronto Center
12:12AM 43.8167 -78.6667 104° East 500 575 35,000  Level Toronto Center
12:13AM 43.7500 -78.4500 113° Southeast 500 575 35,000  Level Toronto Center
12:14AM 43.7167 -78.2667 104° East 500 575 35,000  Level Toronto Center
12:15AM 43.6833 -78.1167 107° East 510 587 35,000  Level Toronto Center
12:16AM 43.6500 -77.9000 102° East 500 575 35,000  Level Toronto Center
12:17AM 43.6167 -77.7167 104° East 510 587 35,000  Level Toronto Center
12:18AM 43.5833 -77.5333 104° East 500 575 35,000  Level Toronto Center
12:19AM 43.5333 -77.3500 111° Southeast 500 575 35,000  Level Toronto Center
12:20AM 43.5000 -77.1500 103° East 510 587 35,000 -600 Level Toronto Center
12:21AM 43.4667 -76.9667 104° East 510 587 33,900 -1,140 Descending Toronto Center
12:22AM 43.4333 -76.7833 104° East 500 575 32,800 -1,200 Descending Toronto Center
12:23AM 43.3833 -76.6000 111° Southeast 500 575 31,500 -900 Descending Toronto Center
12:24AM 43.3500 -76.4167 104° East 510 587 31,000 -300 Descending Toronto Center
12:25AM 43.3000 -76.2500 112° Southeast 510 587 31,000  Level Toronto Center
12:26AM 43.2500 -76.0667 110° East 510 587 31,000 -180 Level Toronto Center
12:27AM 43.2167 -75.8500 102° East 510 587 30,700 -1,200 Descending Toronto Center
12:28AM 43.1833 -75.6833 105° East 510 587 28,700 -2,160 Descending Toronto Center
12:29AM 43.1333 -75.5000 110° East 510 587 26,400 -2,280 Descending Toronto Center
12:30AM 43.1000 -75.3167 104° East 500 575 24,200 -2,280 Descending Toronto Center
12:31AM 43.0500 -75.1333 110° East 480 552 21,900 -2,220 Descending Toronto Center
12:32AM 43.0167 -74.9833 107° East 440 506 19,800 -2,100 Descending Toronto Center
12:33AM 43.0000 -74.8167 98° East 430 495 17,700 -1,980 Descending Toronto Center
12:34AM 42.9500 -74.6833 117° Southeast 410 472 15,900 -2,220 Descending Toronto Center
12:35AM 42.9167 -74.5333 107° East 400 460 13,300 -2,640 Descending Toronto Center
12:37AM 42.8559 -74.2626 105° East  Level FlightAware Approximate
12:44AM 42.7333 -73.8000 119° Southeast  Level FlightAware Approximate
12:45AM 42.7491 -73.8020 119° Southeast  Level Estimated
12:46AM 42.7491 -73.8020 119° Southeast  Level Estimated
12:47AM 42.7491 -73.8020 119° Southeast  Level Estimated
12:48AM 42.7491 -73.8020 119° Southeast  Level Estimated
12:49AM 42.7491 -73.8020 119° Southeast  Level Estimated
12:50AM 42.7491 -73.8020 119° Southeast  Level Estimated
12:51AM 42.7491 -73.8020 119° Southeast  Level Estimated
12:52AM 42.7491 -73.8020 119° Southeast  Level Estimated
12:53AM 42.7491 -73.8020 119° Southeast  Level Estimated
12:54AM 42.7491 -73.8020 119° Southeast  Level Estimated
12:55AM 42.7491 -73.8020 119° Southeast  Level Estimated
12:56AM 42.7491 -73.8020 119° Southeast  Level Estimated
12:57AM 42.7491 -73.8020 119° Southeast  Level Estimated
12:58AM 42.7491 -73.8020 119° Southeast  Level Estimated
12:59AM 42.7491 -73.8020 119° Southeast  Level Estimated